Time;durP1;ratioP1;P1;durP2;ratioP2;P2;SDS_P1;SDS_P2;PMS_P1;PMS_P2;Temp;Humidity;BMP_temperature;BMP_pressure;BME280_temperature;BME280_humidity;BME280_pressure;Samples;Min_cycle;Max_cycle;Signal;HPM_P1;HPM_P2
2023/05/10 00:01:47;;;;;;;1.48;1.38;;;21.30;57.80;;;;;;5076784;28;20218;-80
2023/05/10 00:04:14;;;;;;;1.20;1.10;;;21.30;57.90;;;;;;5076578;28;20263;-80
2023/05/10 00:06:41;;;;;;;1.38;1.30;;;21.20;57.80;;;;;;5060029;28;20736;-80
2023/05/10 00:09:08;;;;;;;1.27;1.27;;;21.30;57.90;;;;;;5076361;28;20198;-80
2023/05/10 00:11:35;;;;;;;1.42;1.15;;;21.30;57.90;;;;;;5077004;28;20218;-80
2023/05/10 00:14:03;;;;;;;1.40;1.30;;;21.30;57.90;;;;;;5076716;28;20684;-80
2023/05/10 00:16:30;;;;;;;2.45;1.45;;;21.30;57.90;;;;;;5083031;28;20209;-80
2023/05/10 00:18:59;;;;;;;2.05;1.30;;;21.30;57.90;;;;;;5077623;28;20194;-80
2023/05/10 00:21:26;;;;;;;1.65;1.20;;;21.30;58.00;;;;;;5059984;28;20619;-80
2023/05/10 00:23:53;;;;;;;1.10;1.10;;;21.30;58.00;;;;;;5076521;28;20219;-80
2023/05/10 00:26:21;;;;;;;1.40;1.30;;;21.20;57.90;;;;;;5076157;28;20207;-80
2023/05/10 00:28:52;;;;;;;1.27;1.17;;;21.30;58.00;;;;;;5076505;28;20199;-80
2023/05/10 00:31:19;;;;;;;1.40;1.30;;;21.30;57.90;;;;;;5076006;28;20226;-80
2023/05/10 00:33:46;;;;;;;2.58;1.35;;;21.20;57.80;;;;;;5076630;28;20198;-80
2023/05/10 00:36:15;;;;;;;1.25;1.15;;;21.30;57.90;;;;;;5076744;28;20209;-80
2023/05/10 00:38:42;;;;;;;1.20;1.10;;;21.20;57.80;;;;;;5076125;28;20598;-80
2023/05/10 00:41:09;;;;;;;1.38;1.30;;;21.20;57.80;;;;;;5076435;28;20250;-80
2023/05/10 00:43:37;;;;;;;2.80;1.20;;;21.20;57.80;;;;;;5060768;28;20190;-80
2023/05/10 00:46:04;;;;;;;1.30;1.20;;;21.20;57.80;;;;;;5076683;28;20249;-80
2023/05/10 00:48:32;;;;;;;1.30;1.17;;;21.20;57.70;;;;;;5059841;28;20665;-80
2023/05/10 00:50:59;;;;;;;1.45;1.30;;;21.20;57.80;;;;;;5075802;28;20199;-80
2023/05/10 00:53:28;;;;;;;1.10;1.10;;;21.30;57.80;;;;;;5075958;28;20549;-80
2023/05/10 00:55:55;;;;;;;2.65;1.02;;;21.20;57.70;;;;;;5075366;28;20218;-80
2023/05/10 00:58:23;;;;;;;1.30;1.20;;;21.20;57.70;;;;;;5075465;28;20195;-80
2023/05/10 01:00:50;;;;;;;0.95;0.95;;;21.20;57.70;;;;;;5075591;28;20199;-80
2023/05/10 01:03:17;;;;;;;1.20;1.10;;;21.20;57.70;;;;;;5075591;28;20657;-80
2023/05/10 01:05:45;;;;;;;1.05;1.05;;;21.20;57.70;;;;;;5075172;28;20293;-81
2023/05/10 01:08:12;;;;;;;1.15;1.10;;;21.10;57.60;;;;;;5074193;28;20285;-81
2023/05/10 01:10:40;;;;;;;0.90;0.90;;;21.20;57.60;;;;;;5075262;28;20195;-81
2023/05/10 01:13:08;;;;;;;1.15;1.10;;;21.10;57.60;;;;;;5075163;28;20244;-80
2023/05/10 01:15:35;;;;;;;1.67;1.10;;;21.20;57.70;;;;;;5059839;28;20183;-80
2023/05/10 01:18:02;;;;;;;1.10;1.00;;;21.20;57.70;;;;;;5076117;28;20218;-80
2023/05/10 01:20:33;;;;;;;0.85;0.85;;;21.10;57.60;;;;;;5058864;28;20195;-80
2023/05/10 01:23:17;;;;;;;1.20;1.10;;;21.10;57.60;;;;;;5084294;28;20219;-80
2023/05/10 01:26:03;;;;;;;1.10;1.00;;;21.10;57.70;;;;;;5079547;28;20222;-80
2023/05/10 01:29:14;;;;;;;0.90;0.90;;;21.10;57.60;;;;;;5064035;28;20266;-80
2023/05/10 01:32:09;;;;;;;1.27;1.20;;;21.10;57.60;;;;;;5003430;28;20224;-80
2023/05/10 01:34:37;;;;;;;1.00;1.00;;;21.10;57.60;;;;;;5080341;28;20187;-80
2023/05/10 01:37:07;;;;;;;0.85;0.85;;;21.10;57.70;;;;;;5077787;28;20206;-80
2023/05/10 01:39:37;;;;;;;0.90;0.90;;;21.00;57.60;;;;;;5076066;28;20210;-80
2023/05/10 01:42:06;;;;;;;0.98;0.88;;;21.00;57.60;;;;;;5075899;28;20282;-80
2023/05/10 01:44:36;;;;;;;0.80;0.80;;;21.00;57.60;;;;;;5075896;28;20249;-80
2023/05/10 01:47:07;;;;;;;0.82;0.82;;;21.00;57.60;;;;;;5076829;28;20248;-80
2023/05/10 01:49:37;;;;;;;1.00;1.00;;;21.00;57.60;;;;;;5075876;28;20671;-79
2023/05/10 01:52:07;;;;;;;0.90;0.90;;;21.00;57.60;;;;;;5075836;28;20280;-79
2023/05/10 01:54:34;;;;;;;1.77;1.00;;;21.00;57.60;;;;;;5075539;28;20215;-79
2023/05/10 01:57:04;;;;;;;1.00;0.90;;;21.00;57.60;;;;;;5058860;28;20202;-79
2023/05/10 01:59:32;;;;;;;0.80;0.80;;;21.00;57.60;;;;;;5075475;28;20369;-79
2023/05/10 02:02:00;;;;;;;0.93;0.93;;;21.00;57.60;;;;;;5075284;28;20221;-79
2023/05/10 02:04:28;;;;;;;1.10;1.00;;;21.00;57.60;;;;;;5075049;28;20260;-79
2023/05/10 02:06:56;;;;;;;0.93;0.80;;;21.00;57.70;;;;;;5075083;28;20201;-79
2023/05/10 02:09:23;;;;;;;1.58;0.88;;;21.00;57.70;;;;;;5075474;28;20199;-79
2023/05/10 02:11:51;;;;;;;1.85;0.85;;;20.90;57.60;;;;;;5075107;28;20264;-79
2023/05/10 02:14:18;;;;;;;1.05;0.80;;;20.90;57.60;;;;;;5074807;28;20194;-79
2023/05/10 02:16:45;;;;;;;0.88;0.88;;;20.90;57.60;;;;;;5075117;28;20198;-79
2023/05/10 02:19:12;;;;;;;0.65;0.65;;;20.90;57.60;;;;;;5074404;28;20672;-79
2023/05/10 02:21:40;;;;;;;0.70;0.70;;;20.90;57.70;;;;;;5074518;28;20215;-79
2023/05/10 02:24:08;;;;;;;0.80;0.80;;;20.90;57.60;;;;;;5057267;28;20206;-79
2023/05/10 02:26:35;;;;;;;0.80;0.80;;;20.90;57.60;;;;;;5074042;28;20218;-79
2023/05/10 02:29:04;;;;;;;1.40;0.80;;;20.90;57.60;;;;;;5058368;28;20290;-79
2023/05/10 02:31:31;;;;;;;0.70;0.70;;;20.90;57.70;;;;;;5073924;28;20309;-79
2023/05/10 02:33:59;;;;;;;1.00;1.00;;;20.80;57.50;;;;;;5075204;28;20194;-79
2023/05/10 02:36:27;;;;;;;1.33;0.85;;;20.90;57.80;;;;;;5074961;28;20226;-79
2023/05/10 02:38:55;;;;;;;0.73;0.73;;;20.80;57.70;;;;;;5073738;28;20194;-79
2023/05/10 02:41:23;;;;;;;1.05;0.80;;;20.80;57.70;;;;;;5074051;28;20225;-79
2023/05/10 02:43:50;;;;;;;1.00;1.00;;;20.80;57.70;;;;;;5073660;28;20265;-79
2023/05/10 02:46:18;;;;;;;0.85;0.82;;;20.80;57.80;;;;;;5073830;28;20715;-79
2023/05/10 02:48:45;;;;;;;1.48;0.80;;;20.80;57.80;;;;;;5075560;28;20199;-79
2023/05/10 02:51:12;;;;;;;0.80;0.80;;;20.80;57.80;;;;;;5058470;28;20626;-79
2023/05/10 02:53:39;;;;;;;1.95;0.95;;;20.80;57.90;;;;;;5074358;28;20285;-79
2023/05/10 02:56:14;;;;;;;1.00;1.00;;;20.80;58.00;;;;;;5074474;28;20199;-79
2023/05/10 02:58:41;;;;;;;2.83;1.10;;;20.70;58.00;;;;;;5074431;28;20196;-79
2023/05/10 03:01:09;;;;;;;0.95;0.70;;;20.70;57.90;;;;;;5074234;28;20217;-79
2023/05/10 03:03:36;;;;;;;1.23;0.80;;;20.70;58.00;;;;;;5073820;28;20199;-79
2023/05/10 03:06:04;;;;;;;0.93;0.80;;;20.70;58.00;;;;;;5073727;28;20215;-79
2023/05/10 03:08:31;;;;;;;0.95;0.75;;;20.70;57.90;;;;;;5057253;28;20190;-79
2023/05/10 03:11:17;;;;;;;0.70;0.70;;;20.70;57.80;;;;;;5073527;28;20198;-79
2023/05/10 03:13:50;;;;;;;0.90;0.70;;;20.70;58.00;;;;;;5057191;28;20194;-79
2023/05/10 03:16:17;;;;;;;0.80;0.80;;;20.70;58.00;;;;;;5073511;28;20191;-79
2023/05/10 03:18:45;;;;;;;0.80;0.80;;;20.80;58.00;;;;;;5073351;28;20591;-79
2023/05/10 03:21:13;;;;;;;0.88;0.88;;;20.80;58.00;;;;;;5073022;28;20222;-79
2023/05/10 03:23:44;;;;;;;0.95;0.88;;;20.80;58.50;;;;;;5073463;28;20568;-79
2023/05/10 03:26:13;;;;;;;2.75;0.88;;;20.80;57.80;;;;;;5073200;28;20218;-79
2023/05/10 03:28:40;;;;;;;0.90;0.90;;;20.90;57.80;;;;;;5074068;28;20187;-79
2023/05/10 03:31:07;;;;;;;0.90;0.90;;;20.90;57.70;;;;;;5073015;28;20214;-79
2023/05/10 03:33:35;;;;;;;0.80;0.80;;;20.90;57.60;;;;;;5073204;28;20679;-79
2023/05/10 03:36:02;;;;;;;0.93;0.88;;;21.00;57.50;;;;;;5073146;28;20648;-79
2023/05/10 03:38:29;;;;;;;0.77;0.77;;;20.90;57.50;;;;;;5073248;28;20740;-79
2023/05/10 03:40:56;;;;;;;0.82;0.80;;;21.00;57.40;;;;;;5073094;28;20199;-79
2023/05/10 03:43:25;;;;;;;1.13;0.77;;;21.10;57.50;;;;;;5056425;28;20201;-79
2023/05/10 03:45:52;;;;;;;1.30;0.90;;;21.10;57.30;;;;;;5073173;28;20340;-79
2023/05/10 03:48:19;;;;;;;0.70;0.57;;;21.00;57.30;;;;;;5072918;28;20201;-79
2023/05/10 03:50:46;;;;;;;0.80;0.80;;;21.10;57.30;;;;;;5072933;28;20244;-79
2023/05/10 03:53:14;;;;;;;1.40;0.70;;;21.10;57.30;;;;;;5073412;28;20198;-81
2023/05/10 03:55:41;;;;;;;0.82;0.75;;;21.10;57.20;;;;;;5073637;28;20187;-81
2023/05/10 03:58:11;;;;;;;0.63;0.63;;;21.10;57.20;;;;;;5074741;28;20221;-80
2023/05/10 04:00:43;;;;;;;0.70;0.70;;;21.10;57.20;;;;;;5074546;28;20210;-81
2023/05/10 04:03:11;;;;;;;0.93;0.80;;;21.10;57.10;;;;;;5076849;28;20215;-81
2023/05/10 04:05:38;;;;;;;1.67;0.85;;;21.20;57.20;;;;;;5075826;28;20214;-81
2023/05/10 04:08:05;;;;;;;0.60;0.60;;;21.10;57.10;;;;;;5059150;28;20195;-81
2023/05/10 04:10:32;;;;;;;0.60;0.60;;;21.10;57.00;;;;;;5058803;28;20316;-81
2023/05/10 04:12:59;;;;;;;0.75;0.75;;;21.20;57.00;;;;;;5075175;28;20225;-80
2023/05/10 04:15:26;;;;;;;1.25;0.70;;;21.10;57.00;;;;;;5074811;28;20198;-81
2023/05/10 04:17:55;;;;;;;0.70;0.70;;;21.10;57.00;;;;;;5076779;28;20202;-81
2023/05/10 04:20:22;;;;;;;0.80;0.75;;;21.10;56.90;;;;;;5075285;28;20195;-80
2023/05/10 04:22:49;;;;;;;1.02;0.90;;;21.20;57.00;;;;;;5075972;28;20214;-80
2023/05/10 04:25:16;;;;;;;0.77;0.77;;;21.10;56.90;;;;;;5074506;28;20234;-81
2023/05/10 04:27:43;;;;;;;0.93;0.80;;;21.10;56.90;;;;;;5100450;22;20259;-80
2023/05/10 04:30:11;;;;;;;0.70;0.70;;;21.10;56.90;;;;;;5055145;28;20210;-80
2023/05/10 04:32:38;;;;;;;1.05;0.82;;;21.10;56.90;;;;;;5053233;28;20219;-80
2023/05/10 04:35:07;;;;;;;0.80;0.73;;;21.20;56.90;;;;;;5053166;28;20191;-80
2023/05/10 04:37:34;;;;;;;0.80;0.80;;;21.20;56.90;;;;;;5052621;28;20203;-80
2023/05/10 04:40:02;;;;;;;0.95;0.70;;;21.10;56.80;;;;;;5052740;28;20203;-80
2023/05/10 04:42:29;;;;;;;0.75;0.75;;;21.10;56.80;;;;;;5053467;28;20219;-80
2023/05/10 04:44:56;;;;;;;0.85;0.85;;;21.20;56.90;;;;;;5055858;28;20200;-80
2023/05/10 04:47:23;;;;;;;1.30;0.73;;;21.10;56.90;;;;;;5056088;28;20229;-80
2023/05/10 04:49:50;;;;;;;0.60;0.60;;;21.10;56.90;;;;;;5057032;28;20196;-80
2023/05/10 04:52:18;;;;;;;1.23;0.70;;;21.10;56.90;;;;;;5056320;28;20223;-80
2023/05/10 04:54:45;;;;;;;0.80;0.80;;;21.10;56.90;;;;;;5039696;28;20206;-80
2023/05/10 04:57:12;;;;;;;0.70;0.70;;;21.20;56.90;;;;;;5039411;28;20357;-80
2023/05/10 04:59:39;;;;;;;0.70;0.70;;;21.10;56.90;;;;;;5055904;28;20199;-80
2023/05/10 05:02:06;;;;;;;0.70;0.70;;;21.10;56.90;;;;;;5055944;28;20223;-80
2023/05/10 05:04:33;;;;;;;0.80;0.65;;;21.10;56.80;;;;;;5045352;28;20203;-80
2023/05/10 05:07:00;;;;;;;0.70;0.70;;;21.10;56.90;;;;;;5066561;28;20216;-80
2023/05/10 05:09:29;;;;;;;0.77;0.77;;;21.10;56.90;;;;;;5043300;28;20239;-80
2023/05/10 05:11:56;;;;;;;1.35;0.75;;;21.10;56.90;;;;;;5056042;28;20634;-80
2023/05/10 05:14:24;;;;;;;1.02;1.00;;;21.20;56.90;;;;;;5055864;28;20211;-80
2023/05/10 05:16:51;;;;;;;0.98;0.88;;;21.10;56.70;;;;;;5055396;28;20676;-80
2023/05/10 05:19:18;;;;;;;0.85;0.50;;;21.20;56.70;;;;;;5055548;28;20261;-80
2023/05/10 05:21:45;;;;;;;0.88;0.80;;;21.30;56.80;;;;;;5055821;28;20223;-80
2023/05/10 05:24:13;;;;;;;1.30;0.70;;;21.30;56.70;;;;;;5056726;28;20209;-80
2023/05/10 05:26:41;;;;;;;2.08;0.80;;;21.30;56.70;;;;;;5056643;28;20705;-80
2023/05/10 05:29:08;;;;;;;1.73;0.70;;;21.30;56.60;;;;;;5057286;28;20215;-80
2023/05/10 05:31:35;;;;;;;1.58;0.80;;;21.30;56.50;;;;;;5056456;28;20219;-80
2023/05/10 05:34:02;;;;;;;0.70;0.70;;;21.30;56.60;;;;;;5056088;28;20200;-80
2023/05/10 05:36:29;;;;;;;0.80;0.80;;;21.30;56.60;;;;;;5056415;28;20282;-80
2023/05/10 05:38:56;;;;;;;1.30;0.70;;;21.30;56.50;;;;;;5039473;28;20196;-80
2023/05/10 05:41:23;;;;;;;0.80;0.80;;;21.30;56.50;;;;;;5056045;28;20223;-80
2023/05/10 05:43:52;;;;;;;1.80;0.77;;;21.30;56.50;;;;;;5057288;28;20294;-80
2023/05/10 05:46:19;;;;;;;0.70;0.70;;;21.30;56.60;;;;;;5056497;28;20219;-80
2023/05/10 05:48:46;;;;;;;0.52;0.50;;;21.30;56.70;;;;;;5056873;28;20261;-80
2023/05/10 05:51:13;;;;;;;1.80;0.77;;;21.30;56.50;;;;;;5056071;28;20220;-80
2023/05/10 05:53:40;;;;;;;1.05;0.80;;;21.30;56.60;;;;;;5055776;28;20226;-80
2023/05/10 05:56:07;;;;;;;1.58;0.90;;;21.30;56.60;;;;;;5056307;28;20619;-80
2023/05/10 05:58:34;;;;;;;0.57;0.57;;;21.30;56.60;;;;;;5055438;28;20749;-80
2023/05/10 06:01:03;;;;;;;0.70;0.70;;;21.30;56.70;;;;;;5057800;28;20215;-80
2023/05/10 06:03:30;;;;;;;0.60;0.60;;;21.30;56.60;;;;;;5057261;28;20205;-80
2023/05/10 06:05:57;;;;;;;0.70;0.60;;;21.30;56.70;;;;;;5039104;28;20238;-80
2023/05/10 06:08:24;;;;;;;0.75;0.75;;;21.30;56.70;;;;;;5055665;28;20214;-80
2023/05/10 06:10:51;;;;;;;0.77;0.77;;;21.30;56.60;;;;;;5054174;28;20206;-80
2023/05/10 06:13:18;;;;;;;0.70;0.70;;;21.30;56.50;;;;;;5056344;28;20191;-80
2023/05/10 06:15:45;;;;;;;1.80;0.80;;;21.40;56.50;;;;;;5057486;28;20183;-80
2023/05/10 06:18:13;;;;;;;0.70;0.70;;;21.40;56.50;;;;;;5056342;28;20192;-80
2023/05/10 06:20:42;;;;;;;0.68;0.68;;;21.40;56.30;;;;;;5055442;28;20204;-80
2023/05/10 06:23:09;;;;;;;0.70;0.70;;;21.40;56.30;;;;;;5055206;28;20216;-80
2023/05/10 06:25:36;;;;;;;0.60;0.60;;;21.50;56.30;;;;;;5038849;28;20661;-80
2023/05/10 06:28:03;;;;;;;1.48;0.63;;;21.50;56.20;;;;;;5055154;28;20207;-80
2023/05/10 06:30:30;;;;;;;1.02;0.70;;;21.50;56.20;;;;;;5038714;28;20278;-80
2023/05/10 06:32:58;;;;;;;0.80;0.80;;;21.60;56.20;;;;;;5055388;28;20567;-80
2023/05/10 06:35:26;;;;;;;0.57;0.57;;;21.50;56.10;;;;;;5055370;28;20199;-80
2023/05/10 06:37:53;;;;;;;0.60;0.60;;;21.60;56.00;;;;;;5054913;28;20233;-80
2023/05/10 06:40:20;;;;;;;0.93;0.77;;;21.60;55.80;;;;;;5055005;28;20203;-80
2023/05/10 06:42:47;;;;;;;0.80;0.80;;;21.60;55.80;;;;;;5038783;28;20241;-80
2023/05/10 06:45:14;;;;;;;0.90;0.70;;;21.60;55.80;;;;;;5054187;28;20196;-80
2023/05/10 06:47:41;;;;;;;0.70;0.70;;;21.60;55.80;;;;;;5054873;28;20215;-80
2023/05/10 06:50:09;;;;;;;0.75;0.75;;;21.60;55.80;;;;;;5054733;28;20210;-80
2023/05/10 06:52:37;;;;;;;0.73;0.73;;;21.60;55.90;;;;;;5054971;28;20223;-80
2023/05/10 06:55:05;;;;;;;0.65;0.65;;;21.60;55.90;;;;;;5054975;28;20221;-80
2023/05/10 06:57:34;;;;;;;0.55;0.55;;;21.60;55.90;;;;;;5055323;28;20609;-80
2023/05/10 07:00:03;;;;;;;1.75;0.77;;;21.60;55.80;;;;;;5056042;28;20203;-80
2023/05/10 07:02:30;;;;;;;0.77;0.77;;;21.60;55.80;;;;;;5054804;28;20223;-80
2023/05/10 07:04:57;;;;;;;0.77;0.77;;;21.60;55.90;;;;;;5053440;28;20621;-80
2023/05/10 07:07:24;;;;;;;0.65;0.40;;;21.60;55.80;;;;;;5055142;28;20220;-80
2023/05/10 07:09:53;;;;;;;0.77;0.77;;;21.60;55.80;;;;;;5055168;28;20207;-80
2023/05/10 07:12:19;;;;;;;0.77;0.77;;;21.60;55.90;;;;;;5054778;28;20215;-80
2023/05/10 07:14:46;;;;;;;0.68;0.68;;;21.60;55.80;;;;;;5054239;28;20256;-80
2023/05/10 07:17:13;;;;;;;0.70;0.70;;;21.60;55.90;;;;;;5054178;28;20253;-80
2023/05/10 07:19:41;;;;;;;0.80;0.80;;;21.60;56.40;;;;;;5053569;28;20249;-80
2023/05/10 07:22:08;;;;;;;0.70;0.70;;;21.60;55.90;;;;;;5054776;28;20265;-80
2023/05/10 07:24:35;;;;;;;0.80;0.80;;;21.60;55.90;;;;;;5055727;28;20237;-80
2023/05/10 07:27:04;;;;;;;0.70;0.70;;;21.60;56.50;;;;;;5055032;28;20218;-80
2023/05/10 07:29:31;;;;;;;0.60;0.60;;;21.60;55.90;;;;;;5054865;28;20650;-80
2023/05/10 07:31:58;;;;;;;1.75;0.80;;;21.70;56.00;;;;;;5054394;28;20247;-80
2023/05/10 07:34:25;;;;;;;0.77;0.77;;;21.70;55.90;;;;;;5056576;28;20199;-80
2023/05/10 07:36:52;;;;;;;0.73;0.73;;;21.70;55.90;;;;;;5057084;28;20191;-80
2023/05/10 07:39:20;;;;;;;0.82;0.80;;;21.70;55.90;;;;;;5057098;28;20195;-80
2023/05/10 07:41:47;;;;;;;0.80;0.80;;;21.80;55.80;;;;;;5057794;28;20223;-80
2023/05/10 07:44:18;;;;;;;0.60;0.60;;;21.80;55.70;;;;;;5058359;28;20196;-80
2023/05/10 07:46:45;;;;;;;0.70;0.70;;;21.90;55.70;;;;;;5054637;28;20716;-80
2023/05/10 07:49:12;;;;;;;0.70;0.70;;;21.90;55.60;;;;;;5055279;28;20598;-80
2023/05/10 07:51:39;;;;;;;0.70;0.70;;;21.90;55.40;;;;;;5036797;28;20223;-80
2023/05/10 07:54:06;;;;;;;0.80;0.80;;;21.90;55.30;;;;;;5053277;28;20662;-80
2023/05/10 07:56:34;;;;;;;0.70;0.70;;;21.90;55.30;;;;;;5038518;28;20570;-80
2023/05/10 07:59:01;;;;;;;0.60;0.60;;;21.90;55.20;;;;;;5054871;28;20199;-80
2023/05/10 08:01:31;;;;;;;1.48;0.70;;;22.00;55.40;;;;;;5053896;28;20353;-80
2023/05/10 08:03:58;;;;;;;1.60;0.82;;;22.00;55.40;;;;;;5052709;28;20199;-80
2023/05/10 08:06:26;;;;;;;0.93;0.70;;;22.00;55.20;;;;;;5053848;28;20218;-80
2023/05/10 08:08:54;;;;;;;0.73;0.70;;;21.90;55.10;;;;;;5054492;28;20205;-80
2023/05/10 08:11:21;;;;;;;0.63;0.63;;;22.00;55.20;;;;;;5052765;28;20665;-79
2023/05/10 08:13:48;;;;;;;0.88;0.60;;;22.00;55.20;;;;;;5053712;28;20199;-80
2023/05/10 08:16:15;;;;;;;1.17;0.75;;;22.00;55.20;;;;;;5036814;28;20195;-80
2023/05/10 08:18:44;;;;;;;0.75;0.60;;;22.00;55.20;;;;;;5056594;28;20199;-80
2023/05/10 08:21:11;;;;;;;1.00;0.80;;;22.00;55.00;;;;;;5056478;28;20219;-80
2023/05/10 08:23:39;;;;;;;0.60;0.60;;;21.90;55.00;;;;;;5056389;28;20199;-80
2023/05/10 08:26:06;;;;;;;0.60;0.60;;;22.00;55.00;;;;;;5039818;28;20203;-80
2023/05/10 08:28:33;;;;;;;0.70;0.70;;;22.00;54.90;;;;;;5056124;28;20199;-80
2023/05/10 08:31:00;;;;;;;0.55;0.55;;;22.00;55.00;;;;;;5056244;28;20207;-80
2023/05/10 08:33:27;;;;;;;0.60;0.60;;;22.10;55.00;;;;;;5056217;28;20191;-80
2023/05/10 08:35:55;;;;;;;1.23;0.60;;;22.10;54.90;;;;;;5056797;28;20261;-80
2023/05/10 08:38:22;;;;;;;0.57;0.52;;;22.00;54.90;;;;;;5056040;28;20196;-80
2023/05/10 08:40:50;;;;;;;0.57;0.57;;;22.10;54.90;;;;;;5056884;28;20558;-80
2023/05/10 08:43:17;;;;;;;0.52;0.52;;;22.10;54.70;;;;;;5055988;28;20238;-80
2023/05/10 08:45:46;;;;;;;0.43;0.43;;;22.10;54.70;;;;;;5055971;28;20195;-80
2023/05/10 08:48:14;;;;;;;0.40;0.40;;;22.10;54.90;;;;;;5055664;28;20220;-80
2023/05/10 08:50:42;;;;;;;0.60;0.60;;;22.10;54.80;;;;;;5055860;28;20203;-80
2023/05/10 08:53:12;;;;;;;0.80;0.80;;;22.10;54.70;;;;;;5056117;28;20247;-80
2023/05/10 08:55:41;;;;;;;0.70;0.70;;;22.20;54.90;;;;;;5056319;28;20202;-80
2023/05/10 08:58:08;;;;;;;0.47;0.47;;;22.20;54.90;;;;;;5055717;28;20196;-80
2023/05/10 09:00:36;;;;;;;0.60;0.60;;;22.20;54.70;;;;;;5055926;28;20742;-80
2023/05/10 09:03:04;;;;;;;0.60;0.60;;;22.20;54.60;;;;;;5055577;28;20649;-80
2023/05/10 09:05:31;;;;;;;0.68;0.68;;;22.20;54.50;;;;;;5055508;28;20696;-80
2023/05/10 09:08:00;;;;;;;0.57;0.50;;;22.20;54.50;;;;;;5056180;28;20215;-80
2023/05/10 09:10:28;;;;;;;0.85;0.60;;;22.20;54.40;;;;;;5056088;28;20203;-80
2023/05/10 09:12:56;;;;;;;0.68;0.57;;;22.30;54.30;;;;;;5055323;28;20220;-80
2023/05/10 09:15:23;;;;;;;0.65;0.60;;;22.30;54.40;;;;;;5056374;28;20218;-80
2023/05/10 09:17:50;;;;;;;0.63;0.50;;;22.30;54.30;;;;;;5055353;28;20219;-80
2023/05/10 09:20:18;;;;;;;0.40;0.40;;;22.40;54.30;;;;;;5055186;28;20202;-80
2023/05/10 09:22:45;;;;;;;0.57;0.57;;;22.40;54.20;;;;;;5054982;28;20270;-80
2023/05/10 09:25:12;;;;;;;0.50;0.50;;;22.40;54.10;;;;;;5055330;28;20223;-80
2023/05/10 09:27:43;;;;;;;1.17;0.80;;;22.40;53.90;;;;;;5054938;28;20582;-80
2023/05/10 09:30:11;;;;;;;0.70;0.70;;;22.50;53.90;;;;;;5056808;28;20195;-80
2023/05/10 09:32:38;;;;;;;0.60;0.50;;;22.50;53.90;;;;;;5056461;28;20215;-80
2023/05/10 09:35:09;;;;;;;0.70;0.70;;;22.50;53.70;;;;;;5059927;28;20322;-80
2023/05/10 09:37:36;;;;;;;0.63;0.63;;;22.50;53.60;;;;;;5057992;28;20250;-80
2023/05/10 09:40:07;;;;;;;0.60;0.60;;;22.50;53.70;;;;;;5027723;28;20242;-80
2023/05/10 09:42:34;;;;;;;0.70;0.70;;;22.50;53.70;;;;;;5061008;28;20219;-80
2023/05/10 09:45:04;;;;;;;0.57;0.57;;;22.50;53.80;;;;;;5056586;28;20196;-80
2023/05/10 09:47:33;;;;;;;0.60;0.60;;;22.50;53.90;;;;;;5057449;28;20199;-80
2023/05/10 09:50:03;;;;;;;0.70;0.70;;;22.40;53.80;;;;;;5055552;28;20246;-80
2023/05/10 09:52:30;;;;;;;0.40;0.40;;;22.40;53.90;;;;;;5054539;28;20243;-80
2023/05/10 09:54:57;;;;;;;0.60;0.60;;;22.50;54.00;;;;;;5038085;28;20226;-80
2023/05/10 09:57:25;;;;;;;0.95;0.60;;;22.50;54.00;;;;;;5037944;28;20199;-80
2023/05/10 09:59:54;;;;;;;0.38;0.38;;;22.50;53.90;;;;;;5054698;28;20227;-80
2023/05/10 10:02:22;;;;;;;0.57;0.57;;;22.50;54.10;;;;;;5055358;28;20216;-80
2023/05/10 10:04:53;;;;;;;0.50;0.50;;;22.50;54.00;;;;;;5055456;28;20253;-80
2023/05/10 10:07:23;;;;;;;0.50;0.50;;;22.60;54.00;;;;;;5055445;28;20223;-80
2023/05/10 10:09:50;;;;;;;0.50;0.50;;;22.60;53.90;;;;;;5054464;28;20192;-80
2023/05/10 10:12:19;;;;;;;0.45;0.40;;;22.70;53.80;;;;;;5054529;28;20694;-80
2023/05/10 10:14:47;;;;;;;1.02;0.50;;;22.70;53.70;;;;;;5054148;28;20200;-80
2023/05/10 10:17:14;;;;;;;0.40;0.40;;;22.70;53.60;;;;;;5054061;28;20192;-80
2023/05/10 10:19:43;;;;;;;0.35;0.35;;;22.80;53.70;;;;;;5054175;28;20196;-80
2023/05/10 10:22:11;;;;;;;0.40;0.40;;;22.80;53.50;;;;;;5037762;28;20211;-80
2023/05/10 10:24:39;;;;;;;0.40;0.40;;;22.80;53.30;;;;;;5055387;28;20199;-80
2023/05/10 10:27:13;;;;;;;0.63;0.63;;;22.90;53.30;;;;;;5060040;22;20577;-80
2023/05/10 10:29:42;;;;;;;0.57;0.57;;;22.90;53.20;;;;;;5034324;28;20650;-80
2023/05/10 10:32:12;;;;;;;0.30;0.30;;;23.00;53.30;;;;;;5036355;28;20629;-77
2023/05/10 10:34:39;;;;;;;0.50;0.50;;;23.00;53.20;;;;;;5037634;28;20207;-77
2023/05/10 10:37:07;;;;;;;0.60;0.60;;;23.00;53.10;;;;;;5036278;28;20196;-77
2023/05/10 10:39:36;;;;;;;0.65;0.65;;;23.00;53.00;;;;;;5035090;28;20207;-77
2023/05/10 10:42:03;;;;;;;1.42;0.65;;;23.10;52.90;;;;;;5034728;28;20216;-77
2023/05/10 10:44:37;;;;;;;0.50;0.50;;;23.10;52.70;;;;;;5035557;28;20287;-79
2023/05/10 10:47:08;;;;;;;0.60;0.60;;;23.10;52.70;;;;;;5033409;28;20227;-79
2023/05/10 10:49:39;;;;;;;1.05;0.50;;;23.10;52.70;;;;;;5017097;28;20207;-79
2023/05/10 10:52:22;;;;;;;0.60;0.50;;;23.10;52.70;;;;;;5033203;28;20215;-79
2023/05/10 10:54:53;;;;;;;0.60;0.60;;;23.10;52.60;;;;;;5033399;28;20204;-79
2023/05/10 10:57:21;;;;;;;0.60;0.60;;;23.10;52.70;;;;;;5033159;28;20199;-79
2023/05/10 10:59:48;;;;;;;0.38;0.38;;;23.00;52.60;;;;;;5033797;28;20730;-80
2023/05/10 11:02:34;;;;;;;0.40;0.40;;;23.10;52.70;;;;;;5033649;28;20604;-79
2023/05/10 11:05:01;;;;;;;0.70;0.60;;;23.00;52.60;;;;;;5035656;28;20191;-79
2023/05/10 11:07:29;;;;;;;0.40;0.40;;;23.00;52.60;;;;;;5033341;28;20212;-79
2023/05/10 11:09:57;;;;;;;0.57;0.55;;;23.00;52.60;;;;;;5033918;28;20227;-79
2023/05/10 11:12:24;;;;;;;0.45;0.45;;;23.00;52.60;;;;;;5031886;28;20227;-79
2023/05/10 11:14:51;;;;;;;1.58;0.50;;;22.90;52.50;;;;;;5033497;28;20200;-79
2023/05/10 11:17:25;;;;;;;0.47;0.40;;;22.90;52.50;;;;;;5033737;28;20630;-80
2023/05/10 11:20:08;;;;;;;0.70;0.70;;;22.90;52.50;;;;;;5036772;28;20196;-80
2023/05/10 11:25:29;;;;;;;0.60;0.60;;;22.90;52.50;;;;;;5113930;27;20542;-56
2023/05/10 11:27:56;;;;;;;0.40;0.40;;;22.90;52.30;;;;;;5111334;28;20268;-56
2023/05/10 11:30:23;;;;;;;0.55;0.50;;;22.90;52.50;;;;;;5111379;28;20189;-56
2023/05/10 11:32:51;;;;;;;0.57;0.57;;;22.90;52.30;;;;;;5111217;28;20189;-55
2023/05/10 11:35:18;;;;;;;0.45;0.40;;;22.80;52.30;;;;;;5111420;28;20229;-55
2023/05/10 11:37:45;;;;;;;0.40;0.40;;;22.90;52.40;;;;;;5110375;28;20193;-55
2023/05/10 11:40:13;;;;;;;0.57;0.57;;;22.90;52.00;;;;;;5110704;28;20204;-56
2023/05/10 11:42:41;;;;;;;0.75;0.35;;;22.90;52.00;;;;;;5109989;28;20193;-56
2023/05/10 11:45:09;;;;;;;0.50;0.50;;;22.90;52.00;;;;;;5111264;28;20219;-55
2023/05/10 11:47:36;;;;;;;0.40;0.40;;;23.00;52.20;;;;;;5110330;28;20617;-57
2023/05/10 11:50:04;;;;;;;0.70;0.70;;;22.90;51.80;;;;;;5111188;28;20187;-56
2023/05/10 11:52:37;;;;;;;0.50;0.50;;;22.90;52.00;;;;;;5109661;28;20205;-55
2023/05/10 11:55:04;;;;;;;0.60;0.60;;;23.00;52.20;;;;;;5111255;28;20177;-55
2023/05/10 11:57:32;;;;;;;0.50;0.50;;;22.90;52.10;;;;;;5110927;28;20189;-54
2023/05/10 12:00:00;;;;;;;0.55;0.55;;;22.90;52.00;;;;;;5109481;28;20194;-55
2023/05/10 12:02:27;;;;;;;0.52;0.52;;;22.90;52.10;;;;;;5109647;28;20231;-55
2023/05/10 12:04:55;;;;;;;0.60;0.60;;;22.90;52.10;;;;;;5111686;28;20227;-56
2023/05/10 12:07:22;;;;;;;0.55;0.55;;;22.80;51.80;;;;;;5111405;28;20189;-55
2023/05/10 12:10:04;;;;;;;0.50;0.50;;;22.80;51.80;;;;;;5111507;28;20218;-55
2023/05/10 12:12:39;;;;;;;1.45;0.60;;;22.80;52.00;;;;;;5110652;28;20225;-56
2023/05/10 12:15:11;;;;;;;0.52;0.52;;;22.80;52.10;;;;;;5110908;28;20169;-56
2023/05/10 12:17:39;;;;;;;0.40;0.40;;;22.80;52.10;;;;;;5111568;28;20170;-55
2023/05/10 12:20:15;;;;;;;0.68;0.55;;;22.80;52.20;;;;;;5111012;28;20185;-55
2023/05/10 12:22:44;;;;;;;0.70;0.70;;;22.80;52.10;;;;;;5110351;28;20182;-55
2023/05/10 12:25:11;;;;;;;0.70;0.70;;;22.80;52.20;;;;;;5109924;28;20221;-56
2023/05/10 12:27:38;;;;;;;0.45;0.45;;;22.80;52.20;;;;;;5108812;28;20667;-55
2023/05/10 12:30:06;;;;;;;0.60;0.47;;;22.70;52.10;;;;;;5110042;28;20560;-55
2023/05/10 12:32:41;;;;;;;0.60;0.60;;;22.70;52.20;;;;;;5109436;28;20740;-55
2023/05/10 12:35:09;;;;;;;0.50;0.50;;;22.70;52.10;;;;;;5106590;28;20652;-55
2023/05/10 12:37:38;;;;;;;1.25;0.80;;;22.70;52.20;;;;;;5096429;28;20186;-56
2023/05/10 12:40:08;;;;;;;0.60;0.60;;;22.70;52.20;;;;;;5095041;28;20277;-56
2023/05/10 12:42:36;;;;;;;1.33;0.57;;;22.70;52.00;;;;;;5095096;28;20728;-56
2023/05/10 12:45:03;;;;;;;0.40;0.40;;;22.80;52.20;;;;;;5096194;28;20202;-55
2023/05/10 12:47:30;;;;;;;0.73;0.60;;;22.80;52.20;;;;;;5096340;28;20190;-55
2023/05/10 12:49:59;;;;;;;1.60;0.60;;;22.80;52.10;;;;;;5096279;28;20252;-55
2023/05/10 12:52:26;;;;;;;1.25;0.80;;;22.80;52.00;;;;;;5094780;28;20197;-56
2023/05/10 12:54:54;;;;;;;0.60;0.60;;;22.90;52.00;;;;;;5096205;28;20190;-55
2023/05/10 12:57:21;;;;;;;0.40;0.40;;;22.80;51.80;;;;;;5095388;28;20603;-54